Rapid City, SD (57701)

7:20 AM MST on December 06, 2016 (GMT -0700)
APRSWXNET | | Change Station

Elev 3264 ft 44.08 °N, 103.21 °W | Updated 22 minutes ago

Clear
Clear
13 °F
Feels Like 13 °F
N
0
Wind Variable Wind from SE
Gusts 6.0 mph

Today
High -- | Low -- °F
--% Chance of Precip.
Yesterday
High -- | Low -- °F
Precip. -- in
Pressure 30.13 in
Visibility 10.0 miles
Clouds Clear
Windchill 13 °F
Dew Point 2 °F
Humidity 62%
Rainfall in
Snow Depth Not available.
7:13 AM 4:14 PM
Waxing Crescent, 42% visible
METAR KRAP 061352Z 36011KT 10SM CLR M14/M18 A2995 RMK AO2 SLP202 T11391178
Pressure 30.13 in
Visibility 10.0 miles
Clouds Clear
Windchill 13 °F
Dew Point 2 °F
Humidity 62%
Rainfall in
Snow Depth Not available.
7:13 AM 4:14 PM
Waxing Crescent, 42% visible
METAR KRAP 061352Z 36011KT 10SM CLR M14/M18 A2995 RMK AO2 SLP202 T11391178

10-Day Weather Forecast

Almanac

Astronomy

Dec. 06, 2016 Rise Set
Actual Time
Civil Twilight
Nautical Twilight
Astronomical Twilight
Moon
Length of Visible Light
Length of Day
Tomorrow will be .
, % of the Moon is Illuminated

Today's Extremes

State Highs State Lows

Community

WunderPhotos

Upload Photos

1,955,949 photos uploaded!

WunderBlog® & News

Nearby

Air Quality

  Air Quality AQ Index Pollutant
Not available.

Snow Depth

Station Depth Elevation

Earthquake Activity

City Distance Mag. Time & Date
Minimum magnitude displayed is 2.5.

Coastal Water Temperatures

Place Temperature

Stations

Nearby Weather Stations

Station Location Temp. Windchill Dew Point Humidity Wind Precip. Elev Updated Type
                   

Watches & Warnings

There are currently no watches in effect.